Knighton, United Kingdom
Current Conditions -  °F | °C
As of 12:50 AM on Tuesday 27 Jan 2015 (Local Time) from EGOS Reporting Station
Broken Clouds Broken Clouds  
Wind Chill: -1°   Ceiling: 4800
Heat Index:   Visibility: 6mi
Dew Point:   Wind: 7mph
Humidity: 93%   Direction: 250°WSW
Pressure: 30.36"   Gusts: NA
Location:  52.35°N, 3.05°W
Report Text: EGOS 270050Z AUTO 25006KT 9999 FEW042/// BKN048/// 02/01 Q1028
Loading
Personal Weather Stations






























Interactive Weather Map New forecast layout! Learn more

10-Day Weather Forecast

Advertisements
Track Severe Weather on mobile